sensor_id;sensor_type;location;lat;lon;timestamp;pressure;altitude;pressure_sealevel;temperature;humidity
19457;BME280;9867;48.094;11.478;2023-04-04T00:00:39;95806.72;;;0.42;100.00
19457;BME280;9867;48.094;11.478;2023-04-04T00:03:08;95812.56;;;0.42;100.00
19457;BME280;9867;48.094;11.478;2023-04-04T00:05:36;95804.88;;;0.44;100.00
19457;BME280;9867;48.094;11.478;2023-04-04T00:08:04;95805.41;;;0.58;100.00
19457;BME280;9867;48.094;11.478;2023-04-04T00:10:32;95793.69;;;0.68;100.00
19457;BME280;9867;48.094;11.478;2023-04-04T00:13:04;95796.56;;;0.64;100.00
19457;BME280;9867;48.094;11.478;2023-04-04T00:15:34;95793.00;;;0.66;100.00
19457;BME280;9867;48.094;11.478;2023-04-04T00:18:02;95792.16;;;0.45;100.00
19457;BME280;9867;48.094;11.478;2023-04-04T00:20:30;95796.69;;;0.62;100.00
19457;BME280;9867;48.094;11.478;2023-04-04T00:22:58;95791.03;;;0.70;100.00
19457;BME280;9867;48.094;11.478;2023-04-04T00:25:26;95784.13;;;0.72;100.00
19457;BME280;9867;48.094;11.478;2023-04-04T00:27:54;95770.75;;;0.60;100.00
19457;BME280;9867;48.094;11.478;2023-04-04T00:30:28;95775.41;;;0.76;100.00
19457;BME280;9867;48.094;11.478;2023-04-04T00:32:56;95785.66;;;0.63;100.00
19457;BME280;9867;48.094;11.478;2023-04-04T00:35:25;95784.50;;;0.67;100.00
19457;BME280;9867;48.094;11.478;2023-04-04T00:37:53;95773.31;;;0.81;100.00
19457;BME280;9867;48.094;11.478;2023-04-04T00:40:21;95767.75;;;0.66;100.00
19457;BME280;9867;48.094;11.478;2023-04-04T00:42:50;95777.63;;;0.70;100.00
19457;BME280;9867;48.094;11.478;2023-04-04T00:45:18;95769.13;;;0.71;100.00
19457;BME280;9867;48.094;11.478;2023-04-04T00:47:49;95766.94;;;0.66;100.00
19457;BME280;9867;48.094;11.478;2023-04-04T00:50:17;95764.34;;;0.56;100.00
19457;BME280;9867;48.094;11.478;2023-04-04T00:52:45;95767.59;;;0.47;100.00
19457;BME280;9867;48.094;11.478;2023-04-04T00:55:13;95750.88;;;0.67;100.00
19457;BME280;9867;48.094;11.478;2023-04-04T00:57:42;95755.97;;;0.88;100.00
19457;BME280;9867;48.094;11.478;2023-04-04T01:00:12;95752.28;;;0.92;100.00
19457;BME280;9867;48.094;11.478;2023-04-04T01:02:41;95753.28;;;0.68;100.00
19457;BME280;9867;48.094;11.478;2023-04-04T01:05:10;95757.56;;;0.57;100.00
19457;BME280;9867;48.094;11.478;2023-04-04T01:07:39;95751.84;;;0.55;100.00
19457;BME280;9867;48.094;11.478;2023-04-04T01:10:10;95750.78;;;0.57;100.00
19457;BME280;9867;48.094;11.478;2023-04-04T01:12:39;95738.75;;;0.61;100.00
19457;BME280;9867;48.094;11.478;2023-04-04T01:15:09;95752.28;;;0.60;100.00
19457;BME280;9867;48.094;11.478;2023-04-04T01:17:37;95749.72;;;0.39;100.00
19457;BME280;9867;48.094;11.478;2023-04-04T01:20:07;95738.66;;;0.51;100.00
19457;BME280;9867;48.094;11.478;2023-04-04T01:22:45;95734.91;;;0.46;100.00
19457;BME280;9867;48.094;11.478;2023-04-04T01:25:17;95734.34;;;0.31;100.00
19457;BME280;9867;48.094;11.478;2023-04-04T01:27:54;95742.81;;;0.41;100.00
19457;BME280;9867;48.094;11.478;2023-04-04T01:30:34;95733.03;;;0.48;100.00
19457;BME280;9867;48.094;11.478;2023-04-04T01:33:09;95720.28;;;0.60;100.00
19457;BME280;9867;48.094;11.478;2023-04-04T01:35:42;95736.28;;;0.39;100.00
19457;BME280;9867;48.094;11.478;2023-04-04T01:38:18;95732.50;;;0.33;100.00
19457;BME280;9867;48.094;11.478;2023-04-04T01:40:48;95738.03;;;0.27;100.00
19457;BME280;9867;48.094;11.478;2023-04-04T01:43:20;95731.31;;;0.16;100.00
19457;BME280;9867;48.094;11.478;2023-04-04T01:45:49;95734.75;;;0.15;100.00
19457;BME280;9867;48.094;11.478;2023-04-04T01:48:18;95734.63;;;0.17;100.00
19457;BME280;9867;48.094;11.478;2023-04-04T01:50:49;95727.28;;;0.14;100.00
19457;BME280;9867;48.094;11.478;2023-04-04T01:53:18;95728.09;;;0.03;100.00
19457;BME280;9867;48.094;11.478;2023-04-04T01:55:46;95727.31;;;0.03;100.00
19457;BME280;9867;48.094;11.478;2023-04-04T01:58:15;95729.13;;;0.23;100.00
19457;BME280;9867;48.094;11.478;2023-04-04T02:00:45;95725.66;;;0.24;100.00
19457;BME280;9867;48.094;11.478;2023-04-04T02:03:13;95731.91;;;-0.14;100.00
19457;BME280;9867;48.094;11.478;2023-04-04T02:05:41;95727.78;;;-0.04;100.00
19457;BME280;9867;48.094;11.478;2023-04-04T02:08:09;95725.16;;;-0.13;100.00
19457;BME280;9867;48.094;11.478;2023-04-04T02:10:46;95734.44;;;-0.14;100.00
19457;BME280;9867;48.094;11.478;2023-04-04T02:13:14;95731.34;;;-0.17;100.00
19457;BME280;9867;48.094;11.478;2023-04-04T02:15:44;95717.94;;;-0.18;100.00
19457;BME280;9867;48.094;11.478;2023-04-04T02:18:12;95731.22;;;-0.16;100.00
19457;BME280;9867;48.094;11.478;2023-04-04T02:20:40;95726.91;;;-0.25;100.00
19457;BME280;9867;48.094;11.478;2023-04-04T02:23:08;95734.56;;;-0.15;100.00
19457;BME280;9867;48.094;11.478;2023-04-04T02:25:36;95726.53;;;-0.20;100.00
19457;BME280;9867;48.094;11.478;2023-04-04T02:28:04;95731.13;;;-0.25;100.00
19457;BME280;9867;48.094;11.478;2023-04-04T02:30:32;95724.34;;;-0.14;100.00
19457;BME280;9867;48.094;11.478;2023-04-04T02:33:03;95724.59;;;-0.28;100.00
19457;BME280;9867;48.094;11.478;2023-04-04T02:35:31;95718.88;;;-0.30;100.00
19457;BME280;9867;48.094;11.478;2023-04-04T02:37:59;95717.38;;;-0.44;100.00
19457;BME280;9867;48.094;11.478;2023-04-04T02:40:36;95711.53;;;-0.55;100.00
19457;BME280;9867;48.094;11.478;2023-04-04T02:43:07;95709.47;;;-0.61;100.00
19457;BME280;9867;48.094;11.478;2023-04-04T02:45:36;95712.56;;;-0.36;100.00
19457;BME280;9867;48.094;11.478;2023-04-04T02:48:20;95717.97;;;-0.29;100.00
19457;BME280;9867;48.094;11.478;2023-04-04T02:50:50;95711.88;;;-0.38;100.00
19457;BME280;9867;48.094;11.478;2023-04-04T02:53:19;95705.56;;;-0.43;100.00
19457;BME280;9867;48.094;11.478;2023-04-04T02:55:50;95718.97;;;-0.20;100.00
19457;BME280;9867;48.094;11.478;2023-04-04T02:58:19;95704.75;;;-0.21;100.00
19457;BME280;9867;48.094;11.478;2023-04-04T03:00:52;95706.59;;;-0.23;100.00
19457;BME280;9867;48.094;11.478;2023-04-04T03:03:26;95701.00;;;-0.38;100.00
19457;BME280;9867;48.094;11.478;2023-04-04T03:05:55;95705.69;;;-0.45;100.00
19457;BME280;9867;48.094;11.478;2023-04-04T03:08:23;95696.31;;;-0.54;100.00
19457;BME280;9867;48.094;11.478;2023-04-04T03:10:51;95695.03;;;-0.71;100.00
19457;BME280;9867;48.094;11.478;2023-04-04T03:13:18;95710.72;;;-0.67;100.00
19457;BME280;9867;48.094;11.478;2023-04-04T03:15:47;95700.53;;;-0.65;100.00
19457;BME280;9867;48.094;11.478;2023-04-04T03:18:15;95697.00;;;-0.63;100.00
19457;BME280;9867;48.094;11.478;2023-04-04T03:20:45;95704.34;;;-0.71;100.00
19457;BME280;9867;48.094;11.478;2023-04-04T03:23:14;95710.50;;;-0.75;100.00
19457;BME280;9867;48.094;11.478;2023-04-04T03:25:43;95709.00;;;-0.66;100.00
19457;BME280;9867;48.094;11.478;2023-04-04T03:28:12;95703.28;;;-0.80;100.00
19457;BME280;9867;48.094;11.478;2023-04-04T03:30:40;95687.72;;;-0.96;100.00
19457;BME280;9867;48.094;11.478;2023-04-04T03:33:08;95705.25;;;-0.61;100.00
19457;BME280;9867;48.094;11.478;2023-04-04T03:35:37;95708.00;;;-0.53;100.00
19457;BME280;9867;48.094;11.478;2023-04-04T03:38:07;95699.97;;;-0.69;100.00
19457;BME280;9867;48.094;11.478;2023-04-04T03:40:36;95705.00;;;-0.80;100.00
19457;BME280;9867;48.094;11.478;2023-04-04T03:43:09;95707.97;;;-0.86;100.00
19457;BME280;9867;48.094;11.478;2023-04-04T03:45:39;95707.19;;;-0.64;100.00
19457;BME280;9867;48.094;11.478;2023-04-04T03:48:08;95707.41;;;-0.45;100.00
19457;BME280;9867;48.094;11.478;2023-04-04T03:50:37;95710.16;;;-0.59;100.00
19457;BME280;9867;48.094;11.478;2023-04-04T03:53:08;95722.28;;;-0.64;100.00
19457;BME280;9867;48.094;11.478;2023-04-04T03:55:39;95722.19;;;-0.74;100.00
19457;BME280;9867;48.094;11.478;2023-04-04T03:58:07;95720.44;;;-0.85;100.00
19457;BME280;9867;48.094;11.478;2023-04-04T04:00:35;95716.47;;;-0.76;100.00
19457;BME280;9867;48.094;11.478;2023-04-04T04:03:04;95705.56;;;-0.99;100.00
19457;BME280;9867;48.094;11.478;2023-04-04T04:05:32;95712.75;;;-1.06;100.00
19457;BME280;9867;48.094;11.478;2023-04-04T04:07:59;95730.88;;;-0.67;100.00
19457;BME280;9867;48.094;11.478;2023-04-04T04:10:29;95723.50;;;-0.92;100.00
19457;BME280;9867;48.094;11.478;2023-04-04T04:12:57;95725.81;;;-0.89;100.00
19457;BME280;9867;48.094;11.478;2023-04-04T04:15:25;95727.91;;;-0.61;100.00
19457;BME280;9867;48.094;11.478;2023-04-04T04:17:55;95724.56;;;-0.84;100.00
19457;BME280;9867;48.094;11.478;2023-04-04T04:20:26;95728.38;;;-0.45;100.00
19457;BME280;9867;48.094;11.478;2023-04-04T04:22:53;95751.84;;;-0.78;100.00
19457;BME280;9867;48.094;11.478;2023-04-04T04:25:22;95714.25;;;-0.92;100.00
19457;BME280;9867;48.094;11.478;2023-04-04T04:28:02;95723.00;;;-0.74;100.00
19457;BME280;9867;48.094;11.478;2023-04-04T04:30:30;95726.59;;;-1.00;100.00
19457;BME280;9867;48.094;11.478;2023-04-04T04:32:58;95718.78;;;-1.08;100.00
19457;BME280;9867;48.094;11.478;2023-04-04T04:35:35;95724.47;;;-1.17;100.00
19457;BME280;9867;48.094;11.478;2023-04-04T04:38:03;95728.69;;;-1.29;100.00
19457;BME280;9867;48.094;11.478;2023-04-04T04:40:31;95735.03;;;-1.12;100.00
19457;BME280;9867;48.094;11.478;2023-04-04T04:43:07;95732.19;;;-1.08;100.00
19457;BME280;9867;48.094;11.478;2023-04-04T04:45:35;95731.31;;;-0.95;100.00
19457;BME280;9867;48.094;11.478;2023-04-04T04:48:06;95730.78;;;-1.12;100.00
19457;BME280;9867;48.094;11.478;2023-04-04T04:50:42;95730.22;;;-1.15;100.00
19457;BME280;9867;48.094;11.478;2023-04-04T04:53:11;95732.13;;;-0.84;100.00
19457;BME280;9867;48.094;11.478;2023-04-04T04:55:39;95731.44;;;-0.97;100.00
19457;BME280;9867;48.094;11.478;2023-04-04T04:58:11;95733.84;;;-0.95;100.00
19457;BME280;9867;48.094;11.478;2023-04-04T05:00:44;95733.94;;;-0.97;100.00
19457;BME280;9867;48.094;11.478;2023-04-04T05:03:12;95736.03;;;-1.15;100.00
19457;BME280;9867;48.094;11.478;2023-04-04T05:05:46;95737.69;;;-1.02;100.00
19457;BME280;9867;48.094;11.478;2023-04-04T05:08:15;95737.69;;;-1.02;100.00
19457;BME280;9867;48.094;11.478;2023-04-04T05:10:59;95732.41;;;0.66;100.00
19457;BME280;9867;48.094;11.478;2023-04-04T05:13:32;95737.56;;;1.79;100.00
19457;BME280;9867;48.094;11.478;2023-04-04T05:16:02;95729.09;;;4.35;100.00
19457;BME280;9867;48.094;11.478;2023-04-04T05:18:32;95733.16;;;4.28;100.00
19457;BME280;9867;48.094;11.478;2023-04-04T05:21:01;95733.66;;;3.40;100.00
19457;BME280;9867;48.094;11.478;2023-04-04T05:23:29;95743.44;;;1.79;100.00
19457;BME280;9867;48.094;11.478;2023-04-04T05:25:57;95749.59;;;3.23;100.00
19457;BME280;9867;48.094;11.478;2023-04-04T05:28:32;95742.69;;;3.05;100.00
19457;BME280;9867;48.094;11.478;2023-04-04T05:31:04;95741.75;;;3.06;100.00
19457;BME280;9867;48.094;11.478;2023-04-04T05:33:34;95750.69;;;2.91;100.00
19457;BME280;9867;48.094;11.478;2023-04-04T05:36:11;95738.94;;;2.52;100.00
19457;BME280;9867;48.094;11.478;2023-04-04T05:38:45;95755.59;;;0.92;100.00
19457;BME280;9867;48.094;11.478;2023-04-04T05:41:17;95760.97;;;0.24;100.00
19457;BME280;9867;48.094;11.478;2023-04-04T05:43:47;95755.31;;;-0.34;100.00
19457;BME280;9867;48.094;11.478;2023-04-04T05:46:20;95757.47;;;-0.52;100.00
19457;BME280;9867;48.094;11.478;2023-04-04T05:48:51;95766.28;;;-0.46;100.00
19457;BME280;9867;48.094;11.478;2023-04-04T05:51:19;95754.34;;;0.55;100.00
19457;BME280;9867;48.094;11.478;2023-04-04T05:53:54;95755.25;;;1.18;100.00
19457;BME280;9867;48.094;11.478;2023-04-04T05:56:27;95744.19;;;0.98;100.00
19457;BME280;9867;48.094;11.478;2023-04-04T05:58:58;95751.94;;;1.48;100.00
19457;BME280;9867;48.094;11.478;2023-04-04T06:01:29;95762.75;;;1.80;100.00
19457;BME280;9867;48.094;11.478;2023-04-04T06:04:00;95757.06;;;1.57;100.00
19457;BME280;9867;48.094;11.478;2023-04-04T06:06:28;95758.50;;;1.90;100.00
19457;BME280;9867;48.094;11.478;2023-04-04T06:08:56;95751.75;;;1.19;100.00
19457;BME280;9867;48.094;11.478;2023-04-04T06:11:25;95763.38;;;0.25;100.00
19457;BME280;9867;48.094;11.478;2023-04-04T06:14:02;95774.00;;;-0.25;100.00
19457;BME280;9867;48.094;11.478;2023-04-04T06:16:30;95761.72;;;-0.52;100.00
19457;BME280;9867;48.094;11.478;2023-04-04T06:18:58;95770.28;;;-0.55;100.00
19457;BME280;9867;48.094;11.478;2023-04-04T06:21:26;95750.69;;;-0.62;100.00
19457;BME280;9867;48.094;11.478;2023-04-04T06:23:56;95758.38;;;-0.64;100.00
19457;BME280;9867;48.094;11.478;2023-04-04T06:26:24;95765.03;;;-0.52;100.00
19457;BME280;9867;48.094;11.478;2023-04-04T06:28:52;95753.75;;;-0.70;100.00
19457;BME280;9867;48.094;11.478;2023-04-04T06:31:34;95763.28;;;-0.62;100.00
19457;BME280;9867;48.094;11.478;2023-04-04T06:34:10;95753.47;;;-0.54;100.00
19457;BME280;9867;48.094;11.478;2023-04-04T06:36:50;95756.88;;;-0.44;100.00
19457;BME280;9867;48.094;11.478;2023-04-04T06:39:18;95754.84;;;-0.50;100.00
19457;BME280;9867;48.094;11.478;2023-04-04T06:41:49;95755.75;;;-0.40;100.00
19457;BME280;9867;48.094;11.478;2023-04-04T06:44:23;95743.47;;;-0.22;100.00
19457;BME280;9867;48.094;11.478;2023-04-04T06:46:52;95755.28;;;-0.12;100.00
19457;BME280;9867;48.094;11.478;2023-04-04T06:49:20;95747.97;;;-0.26;100.00
19457;BME280;9867;48.094;11.478;2023-04-04T06:51:48;95744.88;;;-0.29;100.00
19457;BME280;9867;48.094;11.478;2023-04-04T06:54:18;95749.69;;;-0.15;100.00
19457;BME280;9867;48.094;11.478;2023-04-04T06:56:46;95746.69;;;-0.09;100.00
19457;BME280;9867;48.094;11.478;2023-04-04T06:59:14;95747.50;;;-0.09;100.00
19457;BME280;9867;48.094;11.478;2023-04-04T07:01:43;95750.47;;;-0.04;100.00
19457;BME280;9867;48.094;11.478;2023-04-04T07:04:13;95753.31;;;0.03;100.00
19457;BME280;9867;48.094;11.478;2023-04-04T07:06:40;95753.88;;;0.18;100.00
19457;BME280;9867;48.094;11.478;2023-04-04T07:09:09;95746.66;;;0.13;100.00
19457;BME280;9867;48.094;11.478;2023-04-04T07:11:53;95752.13;;;0.29;100.00
19457;BME280;9867;48.094;11.478;2023-04-04T07:14:21;95755.44;;;0.41;100.00
19457;BME280;9867;48.094;11.478;2023-04-04T07:16:51;95744.63;;;0.50;100.00
19457;BME280;9867;48.094;11.478;2023-04-04T07:19:22;95744.72;;;0.60;100.00
19457;BME280;9867;48.094;11.478;2023-04-04T07:21:54;95749.06;;;0.58;100.00
19457;BME280;9867;48.094;11.478;2023-04-04T07:24:22;95749.69;;;0.71;100.00
19457;BME280;9867;48.094;11.478;2023-04-04T07:26:50;95745.44;;;0.72;100.00
19457;BME280;9867;48.094;11.478;2023-04-04T07:29:18;95749.97;;;0.68;100.00
19457;BME280;9867;48.094;11.478;2023-04-04T07:31:47;95746.53;;;0.58;100.00
19457;BME280;9867;48.094;11.478;2023-04-04T07:34:15;95750.00;;;0.57;100.00
19457;BME280;9867;48.094;11.478;2023-04-04T07:36:44;95743.72;;;0.72;100.00
19457;BME280;9867;48.094;11.478;2023-04-04T07:39:12;95749.44;;;0.85;100.00
19457;BME280;9867;48.094;11.478;2023-04-04T07:41:40;95745.78;;;0.99;100.00
19457;BME280;9867;48.094;11.478;2023-04-04T07:44:08;95753.88;;;1.14;100.00
19457;BME280;9867;48.094;11.478;2023-04-04T07:46:35;95747.28;;;1.22;100.00
19457;BME280;9867;48.094;11.478;2023-04-04T07:49:03;95739.94;;;1.40;100.00
19457;BME280;9867;48.094;11.478;2023-04-04T07:51:31;95735.81;;;1.18;100.00
19457;BME280;9867;48.094;11.478;2023-04-04T07:54:02;95744.94;;;1.30;100.00
19457;BME280;9867;48.094;11.478;2023-04-04T07:56:30;95732.75;;;1.45;100.00
19457;BME280;9867;48.094;11.478;2023-04-04T07:58:58;95734.09;;;1.40;100.00
19457;BME280;9867;48.094;11.478;2023-04-04T08:01:26;95733.78;;;0.91;100.00
19457;BME280;9867;48.094;11.478;2023-04-04T08:03:54;95746.47;;;1.01;100.00
19457;BME280;9867;48.094;11.478;2023-04-04T08:06:22;95736.75;;;1.17;100.00
19457;BME280;9867;48.094;11.478;2023-04-04T08:08:50;95741.03;;;1.47;100.00
19457;BME280;9867;48.094;11.478;2023-04-04T08:11:23;95747.47;;;1.91;100.00
19457;BME280;9867;48.094;11.478;2023-04-04T08:13:51;95738.84;;;2.03;86.14
19457;BME280;9867;48.094;11.478;2023-04-04T08:16:18;95741.63;;;2.00;81.94
19457;BME280;9867;48.094;11.478;2023-04-04T08:18:47;95734.00;;;1.91;95.14
19457;BME280;9867;48.094;11.478;2023-04-04T08:21:14;95746.69;;;1.60;97.85
19457;BME280;9867;48.094;11.478;2023-04-04T08:23:43;95739.72;;;1.83;95.75
19457;BME280;9867;48.094;11.478;2023-04-04T08:26:10;95747.66;;;2.19;90.69
19457;BME280;9867;48.094;11.478;2023-04-04T08:28:40;95744.69;;;2.54;72.69
19457;BME280;9867;48.094;11.478;2023-04-04T08:31:08;95741.47;;;2.61;69.50
19457;BME280;9867;48.094;11.478;2023-04-04T08:33:37;95741.06;;;2.66;71.58
19457;BME280;9867;48.094;11.478;2023-04-04T08:36:13;95740.28;;;2.94;74.42
19457;BME280;9867;48.094;11.478;2023-04-04T08:38:41;95734.97;;;2.78;66.65
19457;BME280;9867;48.094;11.478;2023-04-04T08:41:10;95747.19;;;3.21;77.16
19457;BME280;9867;48.094;11.478;2023-04-04T08:43:42;95747.41;;;3.47;64.91
19457;BME280;9867;48.094;11.478;2023-04-04T08:46:13;95740.66;;;3.09;68.72
19457;BME280;9867;48.094;11.478;2023-04-04T08:48:43;95752.78;;;3.15;69.77
19457;BME280;9867;48.094;11.478;2023-04-04T08:51:13;95752.09;;;3.42;72.19
19457;BME280;9867;48.094;11.478;2023-04-04T08:53:42;95742.81;;;3.60;64.96
19457;BME280;9867;48.094;11.478;2023-04-04T08:56:10;95739.84;;;3.18;64.93
19457;BME280;9867;48.094;11.478;2023-04-04T08:58:39;95735.09;;;2.77;69.97
19457;BME280;9867;48.094;11.478;2023-04-04T09:01:07;95752.53;;;3.08;70.53
19457;BME280;9867;48.094;11.478;2023-04-04T09:03:36;95747.16;;;3.31;64.75
19457;BME280;9867;48.094;11.478;2023-04-04T09:06:05;95748.25;;;3.28;63.68
19457;BME280;9867;48.094;11.478;2023-04-04T09:08:33;95738.94;;;3.66;65.34
19457;BME280;9867;48.094;11.478;2023-04-04T09:11:03;95747.00;;;3.42;60.54
19457;BME280;9867;48.094;11.478;2023-04-04T09:13:32;95756.69;;;3.56;61.36
19457;BME280;9867;48.094;11.478;2023-04-04T09:16:05;95751.59;;;3.75;59.31
19457;BME280;9867;48.094;11.478;2023-04-04T09:18:33;95750.84;;;3.93;58.29
19457;BME280;9867;48.094;11.478;2023-04-04T09:21:08;95752.94;;;3.70;55.97
19457;BME280;9867;48.094;11.478;2023-04-04T09:23:37;95764.03;;;3.03;59.71
19457;BME280;9867;48.094;11.478;2023-04-04T09:26:05;95757.88;;;3.05;58.63
19457;BME280;9867;48.094;11.478;2023-04-04T09:28:34;95757.06;;;3.15;62.83
19457;BME280;9867;48.094;11.478;2023-04-04T09:31:03;95763.09;;;3.70;61.64
19457;BME280;9867;48.094;11.478;2023-04-04T09:33:34;95756.66;;;4.03;57.59
19457;BME280;9867;48.094;11.478;2023-04-04T09:36:05;95762.25;;;4.34;52.86
19457;BME280;9867;48.094;11.478;2023-04-04T09:38:36;95762.13;;;4.08;54.35
19457;BME280;9867;48.094;11.478;2023-04-04T09:41:07;95758.50;;;3.83;55.19
19457;BME280;9867;48.094;11.478;2023-04-04T09:43:38;95752.47;;;3.84;55.29
19457;BME280;9867;48.094;11.478;2023-04-04T09:46:06;95765.97;;;3.85;54.95
19457;BME280;9867;48.094;11.478;2023-04-04T09:48:35;95753.91;;;3.59;56.99
19457;BME280;9867;48.094;11.478;2023-04-04T09:51:04;95763.28;;;3.49;56.50
19457;BME280;9867;48.094;11.478;2023-04-04T09:53:37;95758.75;;;3.53;57.57
19457;BME280;9867;48.094;11.478;2023-04-04T09:56:07;95763.00;;;3.52;56.75
19457;BME280;9867;48.094;11.478;2023-04-04T09:58:37;95764.78;;;3.79;56.41
19457;BME280;9867;48.094;11.478;2023-04-04T10:01:12;95764.63;;;3.53;54.01
19457;BME280;9867;48.094;11.478;2023-04-04T10:03:42;95757.56;;;3.37;55.93
19457;BME280;9867;48.094;11.478;2023-04-04T10:06:10;95764.41;;;3.27;54.43
19457;BME280;9867;48.094;11.478;2023-04-04T10:08:39;95765.59;;;2.85;57.32
19457;BME280;9867;48.094;11.478;2023-04-04T10:11:07;95773.78;;;3.64;55.01
19457;BME280;9867;48.094;11.478;2023-04-04T10:13:39;95763.34;;;4.04;54.01
19457;BME280;9867;48.094;11.478;2023-04-04T10:16:09;95748.38;;;5.35;54.96
19457;BME280;9867;48.094;11.478;2023-04-04T10:18:38;95753.84;;;5.66;53.57
19457;BME280;9867;48.094;11.478;2023-04-04T10:21:07;95749.94;;;6.13;50.21
19457;BME280;9867;48.094;11.478;2023-04-04T10:23:40;95758.84;;;5.83;50.40
19457;BME280;9867;48.094;11.478;2023-04-04T10:26:08;95763.63;;;5.87;50.96
19457;BME280;9867;48.094;11.478;2023-04-04T10:28:39;95760.47;;;5.59;53.32
19457;BME280;9867;48.094;11.478;2023-04-04T10:31:18;95757.56;;;5.54;50.48
19457;BME280;9867;48.094;11.478;2023-04-04T10:33:52;95758.53;;;5.87;52.26
19457;BME280;9867;48.094;11.478;2023-04-04T10:36:28;95759.66;;;6.18;52.48
19457;BME280;9867;48.094;11.478;2023-04-04T10:39:01;95757.50;;;5.45;49.59
19457;BME280;9867;48.094;11.478;2023-04-04T10:41:31;95754.50;;;5.50;50.14
19457;BME280;9867;48.094;11.478;2023-04-04T10:44:10;95754.69;;;6.08;53.20
19457;BME280;9867;48.094;11.478;2023-04-04T10:46:41;95750.53;;;5.04;51.26
19457;BME280;9867;48.094;11.478;2023-04-04T10:49:10;95745.63;;;5.28;53.89
19457;BME280;9867;48.094;11.478;2023-04-04T10:51:40;95750.88;;;5.53;48.80
19457;BME280;9867;48.094;11.478;2023-04-04T10:54:22;95751.69;;;6.13;52.50
19457;BME280;9867;48.094;11.478;2023-04-04T10:56:50;95758.63;;;6.37;51.30
19457;BME280;9867;48.094;11.478;2023-04-04T10:59:19;95751.81;;;6.54;48.29
19457;BME280;9867;48.094;11.478;2023-04-04T11:02:05;95755.84;;;6.22;51.00
19457;BME280;9867;48.094;11.478;2023-04-04T11:04:34;95749.66;;;5.91;48.92
19457;BME280;9867;48.094;11.478;2023-04-04T11:07:16;95752.50;;;4.92;48.20
19457;BME280;9867;48.094;11.478;2023-04-04T11:09:51;95740.44;;;5.64;52.09
19457;BME280;9867;48.094;11.478;2023-04-04T11:12:21;95748.47;;;6.03;51.02
19457;BME280;9867;48.094;11.478;2023-04-04T11:15:06;95743.56;;;6.18;52.28
19457;BME280;9867;48.094;11.478;2023-04-04T11:17:57;95741.41;;;6.31;50.67
19457;BME280;9867;48.094;11.478;2023-04-04T11:20:30;95742.97;;;6.24;49.65
19457;BME280;9867;48.094;11.478;2023-04-04T11:23:04;95728.63;;;6.23;48.48
19457;BME280;9867;48.094;11.478;2023-04-04T11:25:37;95730.03;;;6.83;50.23
19457;BME280;9867;48.094;11.478;2023-04-04T11:28:13;95725.91;;;7.07;47.38
19457;BME280;9867;48.094;11.478;2023-04-04T11:30:42;95719.88;;;5.83;46.81
19457;BME280;9867;48.094;11.478;2023-04-04T11:33:24;95736.91;;;6.25;50.24
19457;BME280;9867;48.094;11.478;2023-04-04T11:35:57;95718.88;;;5.42;49.17
19457;BME280;9867;48.094;11.478;2023-04-04T11:38:28;95718.50;;;5.97;52.99
19457;BME280;9867;48.094;11.478;2023-04-04T11:40:56;95717.19;;;5.59;52.15
19457;BME280;9867;48.094;11.478;2023-04-04T11:43:24;95706.22;;;5.58;55.01
19457;BME280;9867;48.094;11.478;2023-04-04T11:46:04;95727.50;;;5.83;51.20
19457;BME280;9867;48.094;11.478;2023-04-04T11:48:32;95709.91;;;5.64;50.89
19457;BME280;9867;48.094;11.478;2023-04-04T11:51:00;95719.09;;;5.57;49.74
19457;BME280;9867;48.094;11.478;2023-04-04T11:53:31;95710.63;;;5.82;53.55
19457;BME280;9867;48.094;11.478;2023-04-04T11:55:59;95718.78;;;5.60;50.53
19457;BME280;9867;48.094;11.478;2023-04-04T11:58:27;95711.47;;;5.31;50.59
19457;BME280;9867;48.094;11.478;2023-04-04T12:00:55;95716.31;;;5.16;50.38
19457;BME280;9867;48.094;11.478;2023-04-04T12:03:27;95715.31;;;4.73;51.29
19457;BME280;9867;48.094;11.478;2023-04-04T12:05:56;95707.00;;;5.07;55.90
19457;BME280;9867;48.094;11.478;2023-04-04T12:08:24;95710.03;;;5.88;53.49
19457;BME280;9867;48.094;11.478;2023-04-04T12:10:53;95700.66;;;6.63;50.09
19457;BME280;9867;48.094;11.478;2023-04-04T12:13:29;95721.47;;;6.26;48.44
19457;BME280;9867;48.094;11.478;2023-04-04T12:15:57;95707.59;;;6.21;49.36
19457;BME280;9867;48.094;11.478;2023-04-04T12:18:26;95712.94;;;6.52;51.31
19457;BME280;9867;48.094;11.478;2023-04-04T12:20:55;95710.28;;;6.11;46.77
19457;BME280;9867;48.094;11.478;2023-04-04T12:23:23;95707.72;;;5.17;50.84
19457;BME280;9867;48.094;11.478;2023-04-04T12:25:54;95706.13;;;5.16;53.08
19457;BME280;9867;48.094;11.478;2023-04-04T12:28:23;95705.78;;;5.71;52.57
19457;BME280;9867;48.094;11.478;2023-04-04T12:30:53;95711.66;;;5.89;52.05
19457;BME280;9867;48.094;11.478;2023-04-04T12:33:22;95716.78;;;5.45;52.41
19457;BME280;9867;48.094;11.478;2023-04-04T12:35:50;95700.75;;;5.79;52.43
19457;BME280;9867;48.094;11.478;2023-04-04T12:38:19;95702.59;;;5.69;52.40
19457;BME280;9867;48.094;11.478;2023-04-04T12:40:46;95700.56;;;6.14;54.17
19457;BME280;9867;48.094;11.478;2023-04-04T12:43:19;95692.88;;;6.57;50.90
19457;BME280;9867;48.094;11.478;2023-04-04T12:45:49;95688.84;;;6.38;47.90
19457;BME280;9867;48.094;11.478;2023-04-04T12:48:17;95700.69;;;5.37;50.37
19457;BME280;9867;48.094;11.478;2023-04-04T12:50:51;95695.88;;;4.47;51.46
19457;BME280;9867;48.094;11.478;2023-04-04T12:53:20;95699.22;;;4.47;54.00
19457;BME280;9867;48.094;11.478;2023-04-04T12:55:51;95705.81;;;4.93;60.52
19457;BME280;9867;48.094;11.478;2023-04-04T12:58:23;95702.03;;;6.25;54.34
19457;BME280;9867;48.094;11.478;2023-04-04T13:00:52;95698.13;;;5.97;51.00
19457;BME280;9867;48.094;11.478;2023-04-04T13:03:22;95697.72;;;5.49;49.31
19457;BME280;9867;48.094;11.478;2023-04-04T13:05:51;95696.25;;;5.73;49.87
19457;BME280;9867;48.094;11.478;2023-04-04T13:08:19;95693.25;;;6.11;51.58
19457;BME280;9867;48.094;11.478;2023-04-04T13:11:01;95691.69;;;5.85;47.02
19457;BME280;9867;48.094;11.478;2023-04-04T13:13:35;95686.47;;;5.86;49.35
19457;BME280;9867;48.094;11.478;2023-04-04T13:16:05;95699.19;;;5.86;52.13